»·PEaware :: DAL9980 KLAX-KBVS

DAL9980 :: KLAX-KBVS

FLIGHT INFORMATION

Flight Status: Arrived
Operator:
Delta Air Lines
More flights by this operator :: More flights under this callsign
Pilot: Thomas S. (17015)
Aircraft: MCDONNELL-DOUGLAS MD-88
(MD88)
More flights by this aircraft type
Origin: KLAX Los Angeles Intl
United States
Destination: KBVS Skagit Regl
United States
More flights between these airports :: More routes between these airports
Route: +SUMMR2 SCTRR SNS J126 OLM V165 ISLND
File this flight plan on PilotEdge
Remarks:
Altitude:
(Current/Filed)
36,000ft
Speed:
(Current/Filed)
425kts
Departed: 16-Nov-20 08:59 AM
Arrived: 16-Nov-20 11:29 AM
Distance/Time
Traveled:
890nm/2:30
Distance/Time
To Go:
Arrived

Flight Plot

Page will automatically refresh every two minutes.

Flight plan parsing failed; only flown route is shown


Map Options




Map Legend


Flown Route
Filed Route
Departure Airport
Arrival Airport
Navaid (VOR, NDB)
Fix

Horizontal Profiles

Position Reports

Time Latitude Longitude Heading Altitude Ground
Speed
16-Nov-20 08:14 33.943267 -118.395425 269 110ft 0kts
16-Nov-20 08:15 33.943267 -118.395425 269 110ft 0kts
16-Nov-20 08:16 33.943267 -118.395425 269 110ft 0kts
16-Nov-20 08:17 33.943267 -118.395425 269 110ft 0kts
16-Nov-20 08:18 33.943267 -118.395425 269 110ft 0kts
16-Nov-20 08:19 33.943267 -118.395425 269 110ft 0kts
16-Nov-20 08:20 33.943267 -118.395425 269 110ft 0kts
16-Nov-20 08:21 33.943267 -118.395425 269 110ft 0kts
16-Nov-20 08:22 33.943267 -118.395425 269 110ft 0kts
16-Nov-20 08:23 33.943267 -118.395425 269 110ft 0kts
16-Nov-20 08:24 33.943267 -118.395425 269 110ft 0kts
16-Nov-20 08:25 33.943267 -118.395425 269 110ft 0kts
16-Nov-20 08:26 33.943267 -118.395425 269 110ft 0kts
16-Nov-20 08:28 33.943267 -118.395425 269 110ft 0kts
16-Nov-20 08:29 33.943267 -118.395425 269 110ft 0kts
16-Nov-20 08:30 33.943267 -118.395425 269 110ft 0kts
16-Nov-20 08:31 33.943267 -118.395425 269 110ft 0kts
16-Nov-20 08:32 33.943267 -118.395425 269 110ft 0kts
16-Nov-20 08:33 33.943267 -118.395425 269 110ft 0kts
16-Nov-20 08:34 33.943267 -118.395425 269 110ft 0kts
16-Nov-20 08:35 33.943267 -118.395425 269 110ft 0kts
16-Nov-20 08:36 33.943267 -118.395425 269 110ft 0kts
16-Nov-20 08:37 33.943267 -118.395425 269 110ft 0kts
16-Nov-20 08:38 33.943267 -118.395425 269 110ft 0kts
16-Nov-20 08:39 33.943267 -118.395425 269 110ft 0kts
16-Nov-20 08:40 33.943267 -118.395425 269 110ft 0kts
16-Nov-20 08:41 33.943267 -118.395425 269 110ft 0kts
16-Nov-20 08:42 33.943267 -118.395425 269 110ft 0kts
16-Nov-20 08:43 33.943267 -118.395425 269 110ft 0kts
16-Nov-20 08:44 33.943267 -118.395423 270 110ft 0kts
16-Nov-20 08:45 33.943585 -118.394867 217 108ft 2kts
16-Nov-20 08:46 33.943676 -118.394782 218 108ft 0kts
16-Nov-20 08:46 33.943676 -118.394782 218 108ft 0kts
16-Nov-20 08:48 33.943465 -118.394912 196 108ft 2kts
16-Nov-20 08:48 33.943351 -118.394930 183 108ft 0kts
16-Nov-20 08:50 33.943347 -118.394930 182 108ft 0kts
16-Nov-20 08:51 33.940821 -118.395137 191 110ft 7kts
16-Nov-20 08:51 33.939356 -118.394266 84 110ft 17kts
16-Nov-20 08:52 33.940576 -118.389723 84 106ft 15kts
16-Nov-20 08:53 33.941059 -118.384910 82 104ft 13kts
16-Nov-20 08:54 33.940643 -118.381671 83 100ft 11kts
16-Nov-20 08:55 33.940747 -118.380629 83 100ft 0kts
16-Nov-20 08:56 33.940747 -118.380629 83 100ft 0kts
16-Nov-20 08:57 33.940747 -118.380627 83 100ft 0kts
16-Nov-20 08:58 33.939279 -118.385826 263 105ft 97kts
16-Nov-20 08:59 33.931817 -118.457095 264 3161ft 250kts
16-Nov-20 09:00 33.924721 -118.543229 264 3529ft 252kts
16-Nov-20 09:01 33.918157 -118.627299 263 3788ft 226kts
16-Nov-20 09:02 33.917234 -118.702951 269 6380ft 243kts
16-Nov-20 09:03 33.917056 -118.781931 268 8622ft 242kts
16-Nov-20 09:04 33.917742 -118.865307 271 10328ft 255kts
16-Nov-20 09:05 33.920381 -118.952435 271 12537ft 269kts
16-Nov-20 09:06 33.931642 -119.041641 301 15803ft 281kts
16-Nov-20 09:07 33.979170 -119.127767 303 17067ft 358kts
16-Nov-20 09:08 34.047740 -119.222436 329 19059ft 392kts
16-Nov-20 09:09 34.139865 -119.298646 325 21380ft 409kts
16-Nov-20 09:10 34.233697 -119.379478 325 23570ft 422kts
16-Nov-20 09:11 34.330666 -119.463151 325 25557ft 434kts
16-Nov-20 09:12 34.429529 -119.549606 321 27339ft 444kts
16-Nov-20 09:13 34.527263 -119.642951 320 28885ft 453kts
16-Nov-20 09:14 34.626471 -119.737544 319 30577ft 452kts
16-Nov-20 09:15 34.723860 -119.830336 319 32406ft 443kts
16-Nov-20 09:16 34.817136 -119.919142 319 34062ft 434kts
16-Nov-20 09:17 34.914418 -120.011684 318 35511ft 430kts
16-Nov-20 09:18 35.007962 -120.100642 318 36162ft 424kts
16-Nov-20 09:19 35.100952 -120.189019 318 36129ft 425kts
16-Nov-20 09:20 35.194525 -120.277415 319 36098ft 426kts
16-Nov-20 09:21 35.289258 -120.364437 319 36097ft 426kts
16-Nov-20 09:22 35.384162 -120.451434 319 36104ft 426kts
16-Nov-20 09:23 35.478795 -120.538130 319 36157ft 426kts
16-Nov-20 09:24 35.574242 -120.624753 320 36189ft 426kts
16-Nov-20 09:25 35.669646 -120.710652 319 36194ft 426kts
16-Nov-20 09:26 35.765180 -120.796678 319 36194ft 426kts
16-Nov-20 09:27 35.860553 -120.882502 319 36195ft 426kts
16-Nov-20 09:28 35.956205 -120.968543 319 36211ft 426kts
16-Nov-20 09:29 36.051863 -121.054518 319 36190ft 425kts
16-Nov-20 09:30 36.148105 -121.140986 319 36152ft 425kts
16-Nov-20 09:31 36.243858 -121.226958 319 36125ft 426kts
16-Nov-20 09:32 36.339747 -121.312985 319 36125ft 425kts
16-Nov-20 09:33 36.435187 -121.398557 319 36125ft 425kts
16-Nov-20 09:34 36.531253 -121.484648 319 36136ft 425kts
16-Nov-20 09:35 36.626975 -121.570366 319 36163ft 425kts
16-Nov-20 09:36 36.742367 -121.603719 0 36187ft 450kts
16-Nov-20 09:37 36.866753 -121.597549 357 36171ft 448kts
16-Nov-20 09:38 36.991411 -121.593835 357 36172ft 449kts
16-Nov-20 09:39 37.116231 -121.590211 356 36168ft 450kts
16-Nov-20 09:40 37.241574 -121.586579 356 36182ft 451kts
16-Nov-20 09:41 37.366803 -121.582962 356 36195ft 451kts
16-Nov-20 09:42 37.492411 -121.579329 356 36196ft 452kts
16-Nov-20 09:43 37.617945 -121.575693 356 36197ft 452kts
16-Nov-20 09:44 37.743333 -121.572069 356 36197ft 453kts
16-Nov-20 09:45 37.869332 -121.568419 355 36203ft 453kts
16-Nov-20 09:46 37.993390 -121.564839 355 36208ft 453kts
16-Nov-20 09:47 38.120955 -121.561141 355 36202ft 453kts
16-Nov-20 09:48 38.245187 -121.557547 355 36203ft 453kts
16-Nov-20 09:49 38.371084 -121.553905 355 36210ft 453kts
16-Nov-20 09:50 38.494034 -121.570783 334 36218ft 436kts
16-Nov-20 09:51 38.608826 -121.619183 335 36214ft 435kts
16-Nov-20 09:52 38.724112 -121.667002 334 36223ft 435kts
16-Nov-20 09:53 38.839092 -121.714644 334 36225ft 435kts
16-Nov-20 09:54 38.952559 -121.761662 334 36221ft 434kts
16-Nov-20 09:55 39.068805 -121.809815 334 36215ft 433kts
16-Nov-20 09:56 39.181031 -121.856310 334 36209ft 433kts
16-Nov-20 09:57 39.295221 -121.903604 334 36209ft 432kts
16-Nov-20 09:58 39.409771 -121.951040 334 36209ft 432kts
16-Nov-20 09:59 39.519649 -121.996530 334 36207ft 431kts
16-Nov-20 10:00 39.638197 -122.045615 334 36215ft 431kts
16-Nov-20 10:01 39.752278 -122.092833 334 36220ft 431kts
16-Nov-20 10:02 39.866752 -122.140215 334 36220ft 431kts
16-Nov-20 10:03 39.980785 -122.187404 334 36220ft 431kts
16-Nov-20 10:04 40.094639 -122.234036 336 36219ft 433kts
16-Nov-20 10:05 40.213749 -122.268402 340 36214ft 437kts
16-Nov-20 10:06 40.332297 -122.301897 340 36215ft 437kts
16-Nov-20 10:07 40.450641 -122.335435 340 36215ft 436kts
16-Nov-20 10:08 40.569211 -122.369050 340 36216ft 437kts
16-Nov-20 10:09 40.688267 -122.402808 340 36221ft 437kts
16-Nov-20 10:10 40.806959 -122.436443 340 36242ft 437kts
16-Nov-20 10:11 40.925486 -122.470038 340 36235ft 436kts
16-Nov-20 10:12 41.043935 -122.503615 340 36235ft 436kts
16-Nov-20 10:13 41.160758 -122.536722 340 36230ft 436kts
16-Nov-20 10:14 41.279483 -122.570371 340 36230ft 436kts
16-Nov-20 10:15 41.397975 -122.603950 340 36213ft 435kts
16-Nov-20 10:16 41.513749 -122.636764 340 36203ft 435kts
16-Nov-20 10:17 41.635000 -122.671130 340 36214ft 437kts
16-Nov-20 10:18 41.753618 -122.704736 340 36214ft 437kts
16-Nov-20 10:19 41.871816 -122.738227 340 36215ft 437kts
16-Nov-20 10:20 41.991517 -122.772142 340 36193ft 437kts
16-Nov-20 10:21 42.108228 -122.805203 340 36150ft 438kts
16-Nov-20 10:22 42.227669 -122.839045 340 36146ft 438kts
16-Nov-20 10:24 42.346795 -122.874562 340 36146ft 438kts
16-Nov-20 10:25 42.465945 -122.909069 340 36145ft 439kts
16-Nov-20 10:26 42.587221 -122.933129 344 36144ft 442kts
16-Nov-20 10:27 42.709486 -122.956187 344 36128ft 443kts
16-Nov-20 10:28 42.830159 -122.979022 344 36121ft 443kts
16-Nov-20 10:29 42.952998 -123.002275 344 36117ft 443kts
16-Nov-20 10:30 43.074788 -123.025340 344 36109ft 443kts
16-Nov-20 10:31 43.194581 -123.048022 344 36073ft 444kts
16-Nov-20 10:32 43.316847 -123.071163 344 36067ft 445kts
16-Nov-20 10:33 43.439230 -123.094329 344 36065ft 445kts
16-Nov-20 10:34 43.561578 -123.117491 343 36063ft 445kts
16-Nov-20 10:35 43.684167 -123.140704 344 36064ft 446kts
16-Nov-20 10:36 43.807358 -123.164015 343 36045ft 446kts
16-Nov-20 10:37 43.930057 -123.187248 343 36037ft 446kts
16-Nov-20 10:38 44.052816 -123.210480 343 36039ft 447kts
16-Nov-20 10:39 44.176422 -123.215385 3 36022ft 468kts
16-Nov-20 10:39 44.283240 -123.191192 0 36032ft 466kts
16-Nov-20 10:41 44.432832 -123.161269 0 36039ft 465kts
16-Nov-20 10:42 44.560719 -123.135854 0 36047ft 465kts
16-Nov-20 10:43 44.688863 -123.110397 0 36046ft 464kts
16-Nov-20 10:43 44.795322 -123.089249 0 36061ft 464kts
16-Nov-20 10:44 44.922943 -123.063910 359 36041ft 465kts
16-Nov-20 10:46 45.072117 -123.034310 359 36024ft 464kts
16-Nov-20 10:46 45.172948 -123.014180 359 36041ft 464kts
16-Nov-20 10:47 45.304191 -122.988162 359 36017ft 465kts
16-Nov-20 10:48 45.431536 -122.974538 352 36021ft 456kts
16-Nov-20 10:49 45.558766 -122.968587 352 36005ft 458kts
16-Nov-20 10:50 45.684026 -122.962654 352 35997ft 457kts
16-Nov-20 10:51 45.811371 -122.956618 352 36001ft 458kts
16-Nov-20 10:52 45.938195 -122.950607 352 36004ft 457kts
16-Nov-20 10:53 46.065295 -122.944556 351 36007ft 456kts
16-Nov-20 10:54 46.186398 -122.938842 351 36010ft 455kts
16-Nov-20 10:55 46.313355 -122.932803 351 36018ft 454kts
16-Nov-20 10:56 46.439751 -122.926858 350 36042ft 454kts
16-Nov-20 10:57 46.565884 -122.920903 350 36017ft 454kts
16-Nov-20 10:58 46.691834 -122.914900 351 36013ft 453kts
16-Nov-20 10:59 46.817893 -122.908893 350 36017ft 453kts
16-Nov-20 11:00 46.943508 -122.902918 350 35646ft 452kts
16-Nov-20 11:01 47.067721 -122.888792 353 33549ft 444kts
16-Nov-20 11:02 47.187820 -122.872395 352 31240ft 435kts
16-Nov-20 11:03 47.308110 -122.856176 352 29073ft 434kts
16-Nov-20 11:04 47.428699 -122.839213 352 26668ft 426kts
16-Nov-20 11:05 47.544974 -122.824393 355 24297ft 412kts
16-Nov-20 11:06 47.656150 -122.808286 355 23056ft 397kts
16-Nov-20 11:07 47.768999 -122.792146 356 20804ft 414kts
16-Nov-20 11:08 47.881442 -122.776415 356 18677ft 399kts
16-Nov-20 11:09 47.990080 -122.761235 356 16451ft 387kts
16-Nov-20 11:10 48.094757 -122.745039 0 14471ft 368kts
16-Nov-20 11:11 48.191772 -122.728750 2 12272ft 358kts
16-Nov-20 11:12 48.288632 -122.711927 6 10039ft 343kts
16-Nov-20 11:13 48.373076 -122.697042 8 8070ft 288kts
16-Nov-20 11:14 48.451909 -122.689390 0 6574ft 279kts
16-Nov-20 11:15 48.527214 -122.690853 0 5179ft 246kts
16-Nov-20 11:16 48.586857 -122.691815 0 4033ft 198kts
16-Nov-20 11:17 48.629002 -122.723091 300 4014ft 169kts
16-Nov-20 11:18 48.652354 -122.785176 300 3937ft 170kts
16-Nov-20 11:19 48.646291 -122.840873 181 3927ft 166kts
16-Nov-20 11:20 48.623073 -122.789373 104 3938ft 161kts
16-Nov-20 11:21 48.611562 -122.723583 104 3936ft 161kts
16-Nov-20 11:22 48.590503 -122.663457 122 3410ft 163kts
16-Nov-20 11:23 48.566727 -122.611567 125 2634ft 137kts
16-Nov-20 11:24 48.545733 -122.569161 124 2076ft 120kts
16-Nov-20 11:25 48.525918 -122.529516 125 1868ft 119kts
16-Nov-20 11:26 48.505802 -122.489480 121 1250ft 121kts
16-Nov-20 11:27 48.487058 -122.450333 117 511ft 111kts
16-Nov-20 11:28 48.470978 -122.416910 125 118ft 40kts
16-Nov-20 11:29 48.470220 -122.413064 357 111ft 6kts
16-Nov-20 11:30 48.472020 -122.415590 306 122ft 13kts
16-Nov-20 11:31 48.473199 -122.416732 311 127ft 4kts
16-Nov-20 11:32 48.473682 -122.417352 306 130ft 0kts

Navigation Log

Ident Type
Flight plan parsing failed, navigation log unavailable